Time;durP1;ratioP1;P1;durP2;ratioP2;P2;SDS_P1;SDS_P2;PMS_P1;PMS_P2;Temp;Humidity;BMP_temperature;BMP_pressure;BME280_temperature;BME280_humidity;BME280_pressure;Samples;Min_cycle;Max_cycle;Signal;HPM_P1;HPM_P2
2020/12/01 00:00:49;;;;;;;12.32;4.88;;;;;;;;;;5054986;28;20124;-60
2020/12/01 00:03:15;;;;;;;9.43;3.58;;;;;;;;;;5049411;28;20079;-60
2020/12/01 00:05:41;;;;;;;13.23;5.72;;;;;;;;;;5042768;28;20477;-60
2020/12/01 00:08:07;;;;;;;12.93;5.68;;;;;;;;;;5043745;28;20124;-60
2020/12/01 00:10:35;;;;;;;11.77;5.15;;;;;;;;;;5044294;28;20415;-60
2020/12/01 00:13:01;;;;;;;13.32;5.05;;;;;;;;;;5044599;28;20384;-60
2020/12/01 00:15:27;;;;;;;13.00;4.88;;;;;;;;;;5054408;28;20344;-60
2020/12/01 00:17:53;;;;;;;12.77;4.93;;;;;;;;;;5061112;28;20776;-60
2020/12/01 00:20:21;;;;;;;14.82;5.43;;;;;;;;;;5052154;28;20052;-60
2020/12/01 00:22:47;;;;;;;13.13;5.38;;;;;;;;;;5050077;28;20029;-60
2020/12/01 00:25:14;;;;;;;10.90;4.95;;;;;;;;;;5044016;28;20021;-58
2020/12/01 00:27:41;;;;;;;13.98;5.40;;;;;;;;;;5046720;28;20417;-59
2020/12/01 00:30:18;;;;;;;14.25;6.15;;;;;;;;;;5045121;28;20340;-59
2020/12/01 00:32:45;;;;;;;12.57;5.60;;;;;;;;;;5044860;28;20037;-59
2020/12/01 00:35:13;;;;;;;11.15;4.55;;;;;;;;;;5052310;28;20317;-59
2020/12/01 00:37:39;;;;;;;12.82;5.28;;;;;;;;;;5057024;28;20542;-60
2020/12/01 00:40:06;;;;;;;12.38;5.55;;;;;;;;;;5054270;28;20057;-60
2020/12/01 00:42:32;;;;;;;15.65;6.47;;;;;;;;;;5049806;28;20411;-59
2020/12/01 00:44:58;;;;;;;11.38;5.05;;;;;;;;;;5052519;28;20043;-60
2020/12/01 00:47:24;;;;;;;15.18;5.45;;;;;;;;;;5044730;28;20120;-60
2020/12/01 00:49:51;;;;;;;16.05;6.13;;;;;;;;;;5051866;28;20111;-60
2020/12/01 00:52:17;;;;;;;14.45;6.07;;;;;;;;;;5043618;28;20033;-60
2020/12/01 00:54:43;;;;;;;10.75;4.18;;;;;;;;;;5049534;28;20096;-60
2020/12/01 00:57:09;;;;;;;14.68;6.00;;;;;;;;;;5042441;28;20575;-60
2020/12/01 00:59:35;;;;;;;12.48;4.93;;;;;;;;;;5043411;28;20488;-60
2020/12/01 01:02:01;;;;;;;14.63;6.28;;;;;;;;;;5044476;28;20032;-60
2020/12/01 01:04:27;;;;;;;14.30;5.45;;;;;;;;;;5045721;28;20025;-60
2020/12/01 01:06:53;;;;;;;13.20;5.47;;;;;;;;;;5045587;28;20078;-60
2020/12/01 01:09:19;;;;;;;13.80;5.78;;;;;;;;;;5044482;28;20029;-60
2020/12/01 01:11:46;;;;;;;11.38;4.82;;;;;;;;;;5046015;28;20045;-60
2020/12/01 01:14:12;;;;;;;10.82;4.82;;;;;;;;;;5045095;28;20591;-60
2020/12/01 01:16:42;;;;;;;12.30;4.50;;;;;;;;;;5045457;28;20029;-60
2020/12/01 01:19:08;;;;;;;13.35;5.13;;;;;;;;;;5045649;28;20024;-60
2020/12/01 01:21:39;;;;;;;9.40;3.70;;;;;;;;;;5044582;28;20489;-60
2020/12/01 01:24:05;;;;;;;8.93;3.67;;;;;;;;;;5042276;28;20037;-60
2020/12/01 01:26:31;;;;;;;10.57;4.53;;;;;;;;;;5043599;28;20086;-60
2020/12/01 01:28:57;;;;;;;14.23;5.43;;;;;;;;;;5044588;28;20137;-60
2020/12/01 01:31:23;;;;;;;13.23;5.03;;;;;;;;;;5044838;28;20128;-60
2020/12/01 01:33:49;;;;;;;10.05;3.75;;;;;;;;;;5046088;28;20384;-60
2020/12/01 01:36:15;;;;;;;11.18;4.55;;;;;;;;;;5044650;28;20100;-60
2020/12/01 01:38:41;;;;;;;10.63;4.00;;;;;;;;;;5046615;28;20108;-60
2020/12/01 01:41:08;;;;;;;9.27;3.67;;;;;;;;;;5045887;28;20036;-59
2020/12/01 01:43:34;;;;;;;10.98;4.68;;;;;;;;;;5045666;28;20116;-59
2020/12/01 01:46:01;;;;;;;14.23;4.88;;;;;;;;;;5046158;28;20025;-59
2020/12/01 01:48:33;;;;;;;10.50;4.68;;;;;;;;;;5045121;28;20028;-60
2020/12/01 01:50:59;;;;;;;12.82;5.00;;;;;;;;;;5044822;28;20056;-59
2020/12/01 01:53:25;;;;;;;11.93;5.03;;;;;;;;;;5045016;28;20021;-60
2020/12/01 01:55:55;;;;;;;10.40;4.55;;;;;;;;;;5046376;28;20051;-59
2020/12/01 01:58:22;;;;;;;11.25;5.10;;;;;;;;;;5045197;28;20108;-60
2020/12/01 02:00:58;;;;;;;11.70;5.45;;;;;;;;;;5046300;28;20017;-59
2020/12/01 02:03:29;;;;;;;11.80;5.07;;;;;;;;;;5045069;28;20017;-59
2020/12/01 02:05:55;;;;;;;13.40;6.18;;;;;;;;;;5045202;28;20044;-60
2020/12/01 02:08:22;;;;;;;14.38;6.07;;;;;;;;;;5060236;28;20067;-60
2020/12/01 02:10:48;;;;;;;13.80;4.95;;;;;;;;;;5045881;28;20389;-59
2020/12/01 02:13:16;;;;;;;15.55;6.82;;;;;;;;;;5045302;28;20050;-60
2020/12/01 02:15:43;;;;;;;16.50;6.55;;;;;;;;;;5046258;28;20117;-59
2020/12/01 02:18:09;;;;;;;16.17;6.80;;;;;;;;;;5046160;28;20101;-59
2020/12/01 02:20:36;;;;;;;10.57;4.82;;;;;;;;;;5049618;28;20143;-60
2020/12/01 02:23:03;;;;;;;16.45;6.57;;;;;;;;;;5049301;28;20024;-59
2020/12/01 02:25:29;;;;;;;15.20;7.15;;;;;;;;;;5049649;28;20029;-59
2020/12/01 02:27:57;;;;;;;15.02;7.18;;;;;;;;;;5049156;28;20595;-59
2020/12/01 02:30:23;;;;;;;14.43;7.18;;;;;;;;;;5049060;28;20344;-59
2020/12/01 02:32:49;;;;;;;15.77;6.60;;;;;;;;;;5049298;28;20013;-60
2020/12/01 02:35:16;;;;;;;16.30;7.10;;;;;;;;;;5048841;28;20384;-60
2020/12/01 02:37:43;;;;;;;18.15;8.02;;;;;;;;;;5041815;28;20476;-59
2020/12/01 02:40:11;;;;;;;14.32;6.68;;;;;;;;;;5062881;28;20040;-59
2020/12/01 02:42:37;;;;;;;14.55;6.82;;;;;;;;;;5049051;28;20214;-59
2020/12/01 02:45:04;;;;;;;15.73;6.97;;;;;;;;;;5049077;28;20066;-59
2020/12/01 02:47:30;;;;;;;16.42;7.45;;;;;;;;;;5056946;28;20380;-59
2020/12/01 02:49:56;;;;;;;14.13;6.10;;;;;;;;;;5042606;28;20017;-59
2020/12/01 02:52:23;;;;;;;13.98;5.55;;;;;;;;;;5048226;28;20252;-60
2020/12/01 02:54:50;;;;;;;16.27;6.93;;;;;;;;;;5048879;28;20396;-59
2020/12/01 02:57:16;;;;;;;13.65;6.05;;;;;;;;;;5048373;28;20473;-59
2020/12/01 02:59:42;;;;;;;14.95;5.47;;;;;;;;;;5048728;28;20021;-59
2020/12/01 03:02:08;;;;;;;14.13;6.05;;;;;;;;;;5048325;28;20142;-59
2020/12/01 03:04:34;;;;;;;14.25;6.07;;;;;;;;;;5048729;28;20039;-59
2020/12/01 03:07:00;;;;;;;10.02;4.30;;;;;;;;;;5047585;28;20027;-59
2020/12/01 03:09:26;;;;;;;13.13;5.68;;;;;;;;;;5048137;28;20052;-59
2020/12/01 03:11:52;;;;;;;11.60;4.93;;;;;;;;;;5043953;28;20487;-59
2020/12/01 03:14:19;;;;;;;12.65;5.15;;;;;;;;;;5045433;28;20051;-59
2020/12/01 03:16:47;;;;;;;13.38;5.95;;;;;;;;;;5063711;28;20761;-59
2020/12/01 03:19:14;;;;;;;13.05;5.45;;;;;;;;;;5047970;28;20028;-59
2020/12/01 03:21:40;;;;;;;11.27;4.88;;;;;;;;;;5063488;28;20020;-59
2020/12/01 03:24:06;;;;;;;13.35;5.97;;;;;;;;;;5047815;28;20036;-59
2020/12/01 03:26:32;;;;;;;15.50;5.78;;;;;;;;;;5048436;28;20086;-59
2020/12/01 03:28:58;;;;;;;15.55;7.35;;;;;;;;;;5048312;28;20024;-59
2020/12/01 03:31:24;;;;;;;14.55;6.18;;;;;;;;;;5047442;28;20039;-60
2020/12/01 03:33:50;;;;;;;16.40;7.30;;;;;;;;;;5048524;28;20112;-59
2020/12/01 03:36:17;;;;;;;14.43;6.13;;;;;;;;;;5046793;28;20131;-59
2020/12/01 03:38:43;;;;;;;15.75;7.45;;;;;;;;;;5047970;28;20017;-59
2020/12/01 03:41:09;;;;;;;14.02;5.97;;;;;;;;;;5047419;28;20037;-59
2020/12/01 03:43:35;;;;;;;17.25;6.70;;;;;;;;;;5048429;28;20033;-59
2020/12/01 03:46:04;;;;;;;15.05;6.60;;;;;;;;;;5047851;28;20495;-59
2020/12/01 03:48:30;;;;;;;13.27;4.32;;;;;;;;;;5047702;28;20032;-59
2020/12/01 03:50:56;;;;;;;12.93;5.90;;;;;;;;;;5040086;28;20044;-59
2020/12/01 03:53:22;;;;;;;14.15;6.03;;;;;;;;;;5046807;28;20032;-59
2020/12/01 03:55:49;;;;;;;14.15;6.70;;;;;;;;;;5047699;28;20460;-59
2020/12/01 03:58:15;;;;;;;13.10;5.78;;;;;;;;;;5046897;28;20082;-59
2020/12/01 04:00:42;;;;;;;13.80;5.63;;;;;;;;;;5047440;28;20482;-59
2020/12/01 04:03:08;;;;;;;13.88;6.57;;;;;;;;;;5046971;28;20033;-59
2020/12/01 04:05:34;;;;;;;14.95;6.00;;;;;;;;;;5047061;28;20369;-59
2020/12/01 04:08:00;;;;;;;17.40;7.22;;;;;;;;;;5047301;28;20107;-59
2020/12/01 04:10:27;;;;;;;16.27;7.35;;;;;;;;;;5046767;28;20052;-59
2020/12/01 04:12:53;;;;;;;11.75;5.28;;;;;;;;;;5047710;28;20029;-59
2020/12/01 04:15:21;;;;;;;17.50;6.82;;;;;;;;;;5046930;28;20193;-59
2020/12/01 04:17:47;;;;;;;13.50;5.65;;;;;;;;;;5047262;28;20096;-59
2020/12/01 04:20:13;;;;;;;17.80;7.65;;;;;;;;;;5047078;28;20037;-59
2020/12/01 04:22:39;;;;;;;13.50;6.20;;;;;;;;;;5046645;28;20029;-59
2020/12/01 04:25:07;;;;;;;14.85;6.57;;;;;;;;;;5046701;28;20526;-59
2020/12/01 04:27:33;;;;;;;15.88;7.45;;;;;;;;;;5046572;28;20036;-59
2020/12/01 04:29:59;;;;;;;18.65;7.47;;;;;;;;;;5047271;28;20051;-60
2020/12/01 04:32:25;;;;;;;15.50;5.43;;;;;;;;;;5046251;28;20504;-59
2020/12/01 04:34:51;;;;;;;15.65;6.95;;;;;;;;;;5047384;28;20388;-59
2020/12/01 04:37:17;;;;;;;15.18;6.68;;;;;;;;;;5045737;28;20021;-59
2020/12/01 04:39:43;;;;;;;17.15;7.32;;;;;;;;;;5046515;28;20044;-59
2020/12/01 04:42:15;;;;;;;15.65;6.47;;;;;;;;;;5045902;28;20035;-59
2020/12/01 04:44:42;;;;;;;16.85;7.35;;;;;;;;;;5044632;28;20036;-59
2020/12/01 04:47:13;;;;;;;14.10;6.72;;;;;;;;;;5046116;28;20025;-59
2020/12/01 04:49:41;;;;;;;17.05;7.28;;;;;;;;;;5046839;28;20498;-59
2020/12/01 04:52:26;;;;;;;18.33;7.40;;;;;;;;;;5045689;28;20033;-59
2020/12/01 04:55:07;;;;;;;17.63;8.20;;;;;;;;;;5046935;28;20025;-59
2020/12/01 04:57:33;;;;;;;16.77;7.88;;;;;;;;;;5046504;28;20365;-59
2020/12/01 05:00:09;;;;;;;17.20;7.63;;;;;;;;;;5046633;28;20027;-59
2020/12/01 05:02:38;;;;;;;16.52;7.40;;;;;;;;;;5046539;28;20032;-59
2020/12/01 05:05:24;;;;;;;16.70;6.82;;;;;;;;;;5046045;28;20350;-59
2020/12/01 05:08:14;;;;;;;18.95;7.35;;;;;;;;;;5033382;28;20066;-59
2020/12/01 05:10:42;;;;;;;17.63;7.60;;;;;;;;;;5046223;28;20550;-59
2020/12/01 05:13:16;;;;;;;18.70;8.05;;;;;;;;;;5046059;28;20408;-60
2020/12/01 05:15:42;;;;;;;18.65;7.97;;;;;;;;;;5046341;28;20067;-59
2020/12/01 05:18:19;;;;;;;18.55;7.70;;;;;;;;;;5046033;28;20028;-59
2020/12/01 05:20:45;;;;;;;17.27;8.30;;;;;;;;;;5046058;28;20087;-59
2020/12/01 05:23:12;;;;;;;17.20;7.40;;;;;;;;;;5046115;28;20021;-59
2020/12/01 05:25:38;;;;;;;16.15;6.80;;;;;;;;;;5046508;28;20029;-59
2020/12/01 05:28:17;;;;;;;19.52;8.20;;;;;;;;;;5046426;28;20021;-59
2020/12/01 05:30:43;;;;;;;20.90;8.13;;;;;;;;;;5046359;28;20043;-59
2020/12/01 05:33:26;;;;;;;18.23;8.80;;;;;;;;;;5046111;28;20464;-60
2020/12/01 05:35:58;;;;;;;18.70;8.45;;;;;;;;;;5041052;28;20063;-59
2020/12/01 05:38:25;;;;;;;19.55;8.98;;;;;;;;;;5032278;28;20017;-59
2020/12/01 05:40:52;;;;;;;17.90;7.70;;;;;;;;;;5046218;28;20369;-59
2020/12/01 05:43:38;;;;;;;20.25;9.05;;;;;;;;;;5045306;28;20096;-59
2020/12/01 05:46:17;;;;;;;21.13;8.95;;;;;;;;;;5044783;28;20368;-59
2020/12/01 05:49:02;;;;;;;20.55;8.75;;;;;;;;;;5045890;28;20033;-59
2020/12/01 05:51:48;;;;;;;22.65;9.18;;;;;;;;;;5045288;28;20033;-59
2020/12/01 05:54:30;;;;;;;21.20;9.25;;;;;;;;;;5048126;28;20487;-60
2020/12/01 05:56:56;;;;;;;22.52;9.30;;;;;;;;;;5049563;28;20460;-59
2020/12/01 05:59:23;;;;;;;26.08;10.40;;;;;;;;;;5049109;28;20033;-59
2020/12/01 06:01:50;;;;;;;22.13;9.63;;;;;;;;;;5048905;28;20053;-59
2020/12/01 06:04:18;;;;;;;24.02;10.48;;;;;;;;;;5045696;28;20028;-59
2020/12/01 06:06:53;;;;;;;23.25;9.70;;;;;;;;;;5045467;28;20025;-59
2020/12/01 06:09:28;;;;;;;24.45;10.18;;;;;;;;;;5047673;28;20021;-59
2020/12/01 06:11:58;;;;;;;25.42;10.48;;;;;;;;;;5048148;28;20052;-59
2020/12/01 06:14:28;;;;;;;21.40;9.45;;;;;;;;;;5046703;28;20476;-59
2020/12/01 06:17:03;;;;;;;24.60;10.65;;;;;;;;;;5053280;28;20047;-59
2020/12/01 06:19:52;;;;;;;26.52;11.15;;;;;;;;;;5048024;28;20547;-59
2020/12/01 06:22:21;;;;;;;23.80;9.93;;;;;;;;;;5047825;28;20028;-59
2020/12/01 06:24:47;;;;;;;26.47;10.67;;;;;;;;;;5048548;28;20028;-59
2020/12/01 06:27:32;;;;;;;31.85;12.13;;;;;;;;;;5048452;28;20463;-59
2020/12/01 06:30:17;;;;;;;27.20;10.45;;;;;;;;;;5048915;28;20025;-59
2020/12/01 06:33:01;;;;;;;23.88;10.48;;;;;;;;;;5027273;28;20553;-59
2020/12/01 06:35:50;;;;;;;26.67;10.93;;;;;;;;;;5041302;28;20655;-59
2020/12/01 06:38:30;;;;;;;24.17;10.88;;;;;;;;;;5043061;28;20033;-59
2020/12/01 06:41:08;;;;;;;31.73;12.10;;;;;;;;;;5042109;28;20037;-59
2020/12/01 06:43:37;;;;;;;28.42;10.68;;;;;;;;;;5047100;28;20480;-59
2020/12/01 06:46:14;;;;;;;29.98;11.15;;;;;;;;;;5046016;28;20033;-59
2020/12/01 06:48:45;;;;;;;33.97;11.63;;;;;;;;;;5045756;28;20029;-59
2020/12/01 06:51:13;;;;;;;27.73;11.43;;;;;;;;;;5040833;28;20489;-59
2020/12/01 06:53:40;;;;;;;33.47;12.70;;;;;;;;;;5047392;28;20029;-59
2020/12/01 06:56:06;;;;;;;33.70;12.32;;;;;;;;;;5046622;28;20033;-59
2020/12/01 06:58:34;;;;;;;28.88;10.82;;;;;;;;;;5060805;28;20037;-59
2020/12/01 07:01:08;;;;;;;34.55;12.93;;;;;;;;;;5048531;28;20058;-59
2020/12/01 07:03:35;;;;;;;37.28;12.07;;;;;;;;;;5048768;28;20391;-59
2020/12/01 07:06:37;;;;;;;35.17;12.68;;;;;;;;;;5049128;28;20451;-60
2020/12/01 07:09:10;;;;;;;38.47;13.15;;;;;;;;;;5047976;28;20423;-59
2020/12/01 07:11:52;;;;;;;43.22;13.45;;;;;;;;;;5037430;28;20049;-59
2020/12/01 07:14:21;;;;;;;36.75;12.90;;;;;;;;;;5051195;28;20013;-59
2020/12/01 07:16:48;;;;;;;36.75;13.32;;;;;;;;;;5060195;28;20120;-59
2020/12/01 07:19:22;;;;;;;33.67;13.38;;;;;;;;;;5045443;28;20371;-59
2020/12/01 07:21:48;;;;;;;45.10;14.55;;;;;;;;;;5045197;28;20029;-59
2020/12/01 07:24:21;;;;;;;43.80;13.93;;;;;;;;;;5058029;28;20029;-59
2020/12/01 07:27:07;;;;;;;38.88;13.98;;;;;;;;;;5049457;28;20025;-59
2020/12/01 07:29:33;;;;;;;45.78;14.80;;;;;;;;;;5047397;28;20037;-59
2020/12/01 07:32:17;;;;;;;43.17;14.00;;;;;;;;;;5034056;28;20041;-59
2020/12/01 07:34:43;;;;;;;45.50;13.77;;;;;;;;;;5045800;28;20547;-59
2020/12/01 07:37:15;;;;;;;40.20;13.07;;;;;;;;;;5046790;28;20064;-59
2020/12/01 07:39:53;;;;;;;43.22;14.07;;;;;;;;;;5042435;28;20060;-57
2020/12/01 07:42:23;;;;;;;49.53;14.95;;;;;;;;;;5046249;28;20074;-58
2020/12/01 07:44:49;;;;;;;40.22;14.32;;;;;;;;;;5048031;28;20025;-60
2020/12/01 07:47:23;;;;;;;47.35;15.57;;;;;;;;;;5047414;28;20025;-60
2020/12/01 07:50:03;;;;;;;47.90;15.23;;;;;;;;;;5045247;28;20025;-58
2020/12/01 07:52:34;;;;;;;43.67;13.77;;;;;;;;;;5046000;28;20578;-61
2020/12/01 07:55:02;;;;;;;45.90;15.73;;;;;;;;;;5047032;28;20017;-58
2020/12/01 07:57:29;;;;;;;47.03;14.70;;;;;;;;;;5046086;28;20036;-58
2020/12/01 07:59:55;;;;;;;46.88;15.00;;;;;;;;;;5046095;28;20021;-58
2020/12/01 08:02:25;;;;;;;22.08;8.93;;;;;;;;;;5046528;28;20053;-59
2020/12/01 08:04:58;;;;;;;49.35;15.65;;;;;;;;;;5045265;28;20059;-58
2020/12/01 08:07:24;;;;;;;46.03;13.95;;;;;;;;;;5041437;28;20060;-58
2020/12/01 08:09:59;;;;;;;27.77;8.52;;;;;;;;;;5037141;28;20037;-59
2020/12/01 08:12:28;;;;;;;49.50;15.93;;;;;;;;;;5045153;28;20445;-58
2020/12/01 08:14:54;;;;;;;50.67;13.93;;;;;;;;;;5045612;28;20063;-58
2020/12/01 08:17:31;;;;;;;51.22;16.20;;;;;;;;;;5056007;28;20071;-58
2020/12/01 08:19:57;;;;;;;56.03;16.80;;;;;;;;;;5040801;28;20024;-59
2020/12/01 08:22:30;;;;;;;54.53;16.73;;;;;;;;;;5044648;28;20429;-59
2020/12/01 08:25:02;;;;;;;57.20;16.48;;;;;;;;;;5045181;28;20025;-58
2020/12/01 08:27:37;;;;;;;53.28;16.05;;;;;;;;;;5044372;28;20028;-58
2020/12/01 08:30:07;;;;;;;59.22;17.08;;;;;;;;;;5045574;28;20021;-58
2020/12/01 08:32:37;;;;;;;57.55;17.70;;;;;;;;;;5046827;28;20103;-58
2020/12/01 08:35:05;;;;;;;57.47;17.02;;;;;;;;;;5044761;28;20086;-58
2020/12/01 08:37:43;;;;;;;59.72;17.90;;;;;;;;;;5039319;28;20017;-58
2020/12/01 08:40:09;;;;;;;54.97;16.83;;;;;;;;;;5040558;28;20056;-58
2020/12/01 08:42:54;;;;;;;63.90;17.45;;;;;;;;;;5046727;28;20060;-58
2020/12/01 08:45:33;;;;;;;61.50;17.52;;;;;;;;;;5042086;28;20021;-58
2020/12/01 08:48:00;;;;;;;63.03;16.60;;;;;;;;;;5044565;28;20029;-61
2020/12/01 08:50:29;;;;;;;60.38;17.90;;;;;;;;;;5046171;28;20029;-60
2020/12/01 08:53:03;;;;;;;58.13;17.52;;;;;;;;;;5048031;28;20043;-60
2020/12/01 08:55:35;;;;;;;55.20;17.52;;;;;;;;;;5046530;28;20649;-60
2020/12/01 08:58:15;;;;;;;52.50;15.25;;;;;;;;;;5046634;28;20033;-59
2020/12/01 09:00:59;;;;;;;37.70;14.10;;;;;;;;;;5041085;28;20024;-60
2020/12/01 09:03:26;;;;;;;53.08;16.20;;;;;;;;;;5046275;28;20025;-60
2020/12/01 09:05:52;;;;;;;44.03;13.73;;;;;;;;;;5046050;28;20025;-59
2020/12/01 09:11:33;;;;;;;45.05;14.48;;;;;;;;;;5046247;28;20071;-60
2020/12/01 09:14:27;;;;;;;39.80;13.27;;;;;;;;;;5039456;28;20120;-60
2020/12/01 09:19:34;;;;;;;54.42;16.20;;;;;;;;;;5041017;28;19923;-60
2020/12/01 09:22:12;;;;;;;57.17;16.80;;;;;;;;;;5033983;28;20041;-60
2020/12/01 09:24:38;;;;;;;51.58;16.08;;;;;;;;;;5046705;28;20035;-60
2020/12/01 09:27:09;;;;;;;57.95;17.15;;;;;;;;;;5048608;28;20468;-59
2020/12/01 09:29:35;;;;;;;53.10;17.98;;;;;;;;;;5049557;28;20028;-60
2020/12/01 09:32:01;;;;;;;51.88;16.08;;;;;;;;;;5042719;28;20083;-60
2020/12/01 09:34:32;;;;;;;58.85;16.15;;;;;;;;;;5052722;28;20017;-60
2020/12/01 09:36:58;;;;;;;;;;;;;;;;;;5051834;28;20360;-60
2020/12/01 09:39:25;;;;;;;37.78;12.07;;;;;;;;;;5047103;28;19905;-60
2020/12/01 09:42:01;;;;;;;53.53;16.77;;;;;;;;;;5058062;28;20052;-60
2020/12/01 09:47:19;;;;;;;42.25;14.20;;;;;;;;;;5046886;28;20044;-60
2020/12/01 09:49:45;;;;;;;47.13;15.38;;;;;;;;;;5051255;28;20051;-60
2020/12/01 09:52:16;;;;;;;50.65;15.25;;;;;;;;;;5049328;28;20033;-60
2020/12/01 09:55:26;;;;;;;51.40;15.23;;;;;;;;;;5053104;28;20403;-60
2020/12/01 10:05:51;;;;;;;40.22;13.30;;;;;;;;;;5049900;28;20108;-60
2020/12/01 10:08:18;;;;;;;43.28;13.27;;;;;;;;;;5049601;28;20122;-60
2020/12/01 10:19:03;;;;;;;39.67;13.02;;;;;;;;;;5048106;28;20064;-60
2020/12/01 10:36:51;;;;;;;38.53;12.40;;;;;;;;;;5047980;28;20056;-60
2020/12/01 10:39:17;;;;;;;35.75;11.45;;;;;;;;;;5047380;28;20021;-60
2020/12/01 10:41:43;;;;;;;33.28;11.00;;;;;;;;;;5049212;28;20122;-58
2020/12/01 10:44:11;;;;;;;32.92;11.30;;;;;;;;;;5064537;28;20484;-58
2020/12/01 10:46:37;;;;;;;32.15;11.63;;;;;;;;;;5047945;28;20708;-58
2020/12/01 10:49:04;;;;;;;33.53;11.85;;;;;;;;;;5048505;28;20536;-58
2020/12/01 10:51:32;;;;;;;32.75;11.95;;;;;;;;;;5047817;28;20098;-58
2020/12/01 10:53:58;;;;;;;29.70;9.65;;;;;;;;;;5048727;28;20021;-58
2020/12/01 10:56:24;;;;;;;32.35;11.48;;;;;;;;;;5048683;28;20115;-59
2020/12/01 10:58:51;;;;;;;10.35;4.63;;;;;;;;;;5048938;28;20589;-59
2020/12/01 11:01:17;;;;;;;32.92;10.85;;;;;;;;;;5048812;28;20029;-58
2020/12/01 11:03:43;;;;;;;19.55;6.45;;;;;;;;;;5048907;28;20021;-59
2020/12/01 11:06:09;;;;;;;30.67;10.85;;;;;;;;;;5047799;28;20029;-59
2020/12/01 11:08:35;;;;;;;28.30;10.60;;;;;;;;;;5047497;28;20107;-59
2020/12/01 11:11:01;;;;;;;29.25;10.68;;;;;;;;;;5048235;28;20037;-59
2020/12/01 11:13:27;;;;;;;30.90;10.68;;;;;;;;;;5046094;28;20494;-59
2020/12/01 11:15:54;;;;;;;24.65;7.93;;;;;;;;;;5048694;28;20589;-58
2020/12/01 11:18:20;;;;;;;27.83;9.70;;;;;;;;;;5048867;28;20032;-58
2020/12/01 11:20:46;;;;;;;29.60;10.35;;;;;;;;;;5038345;28;20045;-59
2020/12/01 11:23:13;;;;;;;33.17;12.25;;;;;;;;;;5047964;28;20014;-59
2020/12/01 11:25:39;;;;;;;24.85;8.73;;;;;;;;;;5047859;28;20043;-58
2020/12/01 11:28:05;;;;;;;26.20;10.48;;;;;;;;;;5047539;28;20021;-59
2020/12/01 11:30:31;;;;;;;33.13;11.38;;;;;;;;;;5046500;28;20048;-59
2020/12/01 11:32:57;;;;;;;25.63;9.95;;;;;;;;;;5046872;28;20020;-59
2020/12/01 11:35:24;;;;;;;28.98;10.52;;;;;;;;;;5046331;28;20025;-59
2020/12/01 11:37:51;;;;;;;20.05;8.35;;;;;;;;;;5045952;28;20469;-59
2020/12/01 11:42:53;;;;;;;22.35;8.38;;;;;;;;;;5229770;22;20042;-59
2020/12/01 11:45:19;;;;;;;26.25;9.88;;;;;;;;;;5020413;28;20175;-60
2020/12/01 11:47:45;;;;;;;27.42;10.65;;;;;;;;;;5023538;28;20021;-60
2020/12/01 11:50:12;;;;;;;28.23;10.32;;;;;;;;;;5024607;28;20051;-59
2020/12/01 11:52:39;;;;;;;24.35;10.05;;;;;;;;;;5019450;28;20017;-59
2020/12/01 11:55:06;;;;;;;15.63;5.55;;;;;;;;;;5025458;28;20558;-59
2020/12/01 11:57:32;;;;;;;25.13;9.15;;;;;;;;;;5027821;28;20453;-59
2020/12/01 11:59:58;;;;;;;19.95;8.60;;;;;;;;;;5029787;28;20037;-59
2020/12/01 12:02:24;;;;;;;21.95;9.27;;;;;;;;;;5028483;28;20029;-59
2020/12/01 12:04:50;;;;;;;25.48;9.77;;;;;;;;;;5022624;28;20040;-59
2020/12/01 12:07:18;;;;;;;22.08;8.32;;;;;;;;;;5013165;28;20104;-59
2020/12/01 12:09:44;;;;;;;23.02;8.40;;;;;;;;;;5017850;28;20167;-59
2020/12/01 12:12:10;;;;;;;24.05;8.45;;;;;;;;;;5019365;28;20095;-59
2020/12/01 12:14:36;;;;;;;24.05;8.43;;;;;;;;;;5019498;28;20498;-59
2020/12/01 12:17:02;;;;;;;22.27;8.93;;;;;;;;;;5024016;28;20060;-59
2020/12/01 12:19:28;;;;;;;24.13;9.63;;;;;;;;;;5020721;28;20060;-59
2020/12/01 12:21:54;;;;;;;22.90;10.40;;;;;;;;;;5006999;28;20475;-59
2020/12/01 12:24:20;;;;;;;20.05;9.13;;;;;;;;;;5019259;28;20036;-60
2020/12/01 12:26:46;;;;;;;20.58;7.97;;;;;;;;;;5017049;28;20026;-59
2020/12/01 12:29:12;;;;;;;23.30;9.48;;;;;;;;;;5014652;28;20049;-59
2020/12/01 12:31:38;;;;;;;25.25;9.90;;;;;;;;;;5020584;28;20091;-59
2020/12/01 12:34:04;;;;;;;22.70;9.05;;;;;;;;;;5019600;28;20080;-59
2020/12/01 12:36:31;;;;;;;25.48;9.18;;;;;;;;;;5020107;28;20065;-59
2020/12/01 12:38:57;;;;;;;25.92;11.43;;;;;;;;;;5017578;28;20022;-59
2020/12/01 12:41:23;;;;;;;21.95;9.63;;;;;;;;;;5011689;28;20128;-60
2020/12/01 12:43:50;;;;;;;22.83;8.93;;;;;;;;;;5025731;28;20128;-59
2020/12/01 12:46:16;;;;;;;27.52;10.48;;;;;;;;;;5024253;28;20034;-60
2020/12/01 12:48:42;;;;;;;25.13;9.25;;;;;;;;;;5025958;28;20029;-60
2020/12/01 12:51:08;;;;;;;22.27;9.40;;;;;;;;;;5014836;28;20092;-60
2020/12/01 12:53:34;;;;;;;22.10;9.15;;;;;;;;;;5014032;28;20048;-60
2020/12/01 12:56:00;;;;;;;21.00;8.57;;;;;;;;;;5000734;28;20024;-60
2020/12/01 12:58:26;;;;;;;20.55;8.63;;;;;;;;;;5018938;28;20026;-60
2020/12/01 13:00:52;;;;;;;22.20;8.73;;;;;;;;;;5017581;28;20401;-60
2020/12/01 13:03:18;;;;;;;20.70;8.48;;;;;;;;;;5010982;28;20465;-60
2020/12/01 13:05:44;;;;;;;20.13;8.55;;;;;;;;;;5022381;28;20075;-60
2020/12/01 13:08:10;;;;;;;21.30;9.20;;;;;;;;;;5015227;28;20080;-59
2020/12/01 13:10:36;;;;;;;18.80;8.65;;;;;;;;;;5021369;28;20037;-60
2020/12/01 13:13:03;;;;;;;18.38;8.60;;;;;;;;;;5016832;28;20041;-59
2020/12/01 13:15:29;;;;;;;21.25;8.73;;;;;;;;;;5017049;28;20040;-60
2020/12/01 13:17:55;;;;;;;19.73;8.23;;;;;;;;;;5024946;28;20055;-59
2020/12/01 13:20:23;;;;;;;18.15;7.40;;;;;;;;;;5011342;28;20137;-60
2020/12/01 13:22:50;;;;;;;15.90;7.78;;;;;;;;;;5016529;28;20026;-60
2020/12/01 13:25:16;;;;;;;18.08;7.38;;;;;;;;;;5017981;28;20025;-60
2020/12/01 13:27:42;;;;;;;16.27;6.95;;;;;;;;;;5014059;28;20061;-59
2020/12/01 13:30:09;;;;;;;19.30;7.88;;;;;;;;;;5018565;28;20049;-60
2020/12/01 13:32:35;;;;;;;15.88;7.07;;;;;;;;;;5013192;28;20046;-59
2020/12/01 13:35:01;;;;;;;16.63;7.45;;;;;;;;;;5022825;28;20022;-60
2020/12/01 13:37:28;;;;;;;21.30;8.57;;;;;;;;;;5011212;28;20048;-60
2020/12/01 13:39:54;;;;;;;21.58;8.93;;;;;;;;;;5021949;28;20091;-60
2020/12/01 13:42:20;;;;;;;21.02;9.18;;;;;;;;;;5018958;28;20541;-60
2020/12/01 13:44:46;;;;;;;25.70;10.35;;;;;;;;;;5024948;28;20265;-60
2020/12/01 13:47:12;;;;;;;37.78;12.10;;;;;;;;;;5023603;28;20104;-60
2020/12/01 13:49:38;;;;;;;29.05;12.20;;;;;;;;;;5025256;28;20103;-60
2020/12/01 13:52:04;;;;;;;30.58;13.30;;;;;;;;;;5020716;28;20029;-60
2020/12/01 13:54:30;;;;;;;31.60;13.98;;;;;;;;;;5010287;28;20022;-60
2020/12/01 13:56:56;;;;;;;38.22;13.70;;;;;;;;;;5008294;28;20030;-60
2020/12/01 13:59:22;;;;;;;34.72;14.48;;;;;;;;;;5017499;28;20025;-60
2020/12/01 14:01:50;;;;;;;36.58;14.82;;;;;;;;;;5008424;28;20041;-60
2020/12/01 14:04:16;;;;;;;39.97;14.18;;;;;;;;;;5009768;28;20076;-60
2020/12/01 14:06:42;;;;;;;38.53;14.57;;;;;;;;;;5017108;28;20038;-60
2020/12/01 14:09:08;;;;;;;36.95;15.80;;;;;;;;;;5008826;28;20029;-60
2020/12/01 14:11:34;;;;;;;37.17;16.63;;;;;;;;;;5010119;28;20840;-60
2020/12/01 14:14:00;;;;;;;37.20;16.20;;;;;;;;;;5009802;28;20030;-60
2020/12/01 14:16:26;;;;;;;42.30;15.02;;;;;;;;;;5013454;28;20034;-60
2020/12/01 14:18:52;;;;;;;36.35;15.55;;;;;;;;;;5012145;28;20022;-60
2020/12/01 14:21:18;;;;;;;35.78;14.38;;;;;;;;;;5013115;28;20527;-60
2020/12/01 14:23:44;;;;;;;31.92;13.00;;;;;;;;;;5024011;28;20091;-60
2020/12/01 14:26:13;;;;;;;29.65;13.00;;;;;;;;;;5012264;28;20484;-59
2020/12/01 14:28:39;;;;;;;29.08;11.48;;;;;;;;;;5011137;28;20037;-60
2020/12/01 14:31:05;;;;;;;26.85;11.75;;;;;;;;;;5020997;28;20083;-60
2020/12/01 14:33:31;;;;;;;29.65;12.23;;;;;;;;;;5025491;28;20115;-60
2020/12/01 14:35:57;;;;;;;26.05;11.98;;;;;;;;;;5023885;28;20099;-60
2020/12/01 14:38:23;;;;;;;27.05;11.27;;;;;;;;;;5018094;28;20398;-60
2020/12/01 14:40:50;;;;;;;26.40;11.48;;;;;;;;;;5018240;28;20021;-60
2020/12/01 14:43:17;;;;;;;25.73;11.95;;;;;;;;;;5028090;28;20463;-60
2020/12/01 14:45:43;;;;;;;26.77;11.63;;;;;;;;;;5020902;28;20076;-60
2020/12/01 14:48:27;;;;;;;27.42;12.45;;;;;;;;;;5023603;28;20030;-60
2020/12/01 14:50:59;;;;;;;28.58;13.05;;;;;;;;;;5021102;28;20087;-60
2020/12/01 14:53:25;;;;;;;29.77;13.02;;;;;;;;;;5018526;28;20121;-60
2020/12/01 14:56:07;;;;;;;33.60;13.90;;;;;;;;;;5023170;28;20113;-60
2020/12/01 14:58:39;;;;;;;27.83;13.13;;;;;;;;;;5025330;28;20017;-60
2020/12/01 15:01:17;;;;;;;30.33;12.85;;;;;;;;;;5023710;28;20490;-60
2020/12/01 15:03:54;;;;;;;31.23;13.35;;;;;;;;;;5022640;28;20030;-60
2020/12/01 15:06:23;;;;;;;27.10;12.15;;;;;;;;;;5023696;28;20055;-60
2020/12/01 15:08:49;;;;;;;31.27;13.63;;;;;;;;;;5027430;28;20028;-60
2020/12/01 15:11:15;;;;;;;26.10;11.25;;;;;;;;;;5023501;28;20052;-60
2020/12/01 15:13:43;;;;;;;25.35;12.27;;;;;;;;;;5023563;28;20385;-60
2020/12/01 15:16:11;;;;;;;29.00;12.73;;;;;;;;;;5026822;28;20033;-59
2020/12/01 15:18:38;;;;;;;27.73;11.52;;;;;;;;;;5025401;28;20481;-59